Time;durP1;ratioP1;P1;durP2;ratioP2;P2;SDS_P1;SDS_P2;PMS_P1;PMS_P2;Temp;Humidity;BMP_temperature;BMP_pressure;BME280_temperature;BME280_humidity;BME280_pressure;Samples;Min_cycle;Max_cycle;Signal;HPM_P1;HPM_P2
2021/05/16 00:02:42;;;;;;;2.90;2.37;;;15.20;99.90;;;;;;6297924;28;20469;-65
2021/05/16 00:05:46;;;;;;;5.10;3.20;;;15.20;99.90;;;;;;6297344;28;20473;-65
2021/05/16 00:08:48;;;;;;;2.87;2.63;;;15.30;99.90;;;;;;6298009;28;20476;-66
2021/05/16 00:11:51;;;;;;;4.90;2.93;;;15.30;99.90;;;;;;6299031;28;20964;-65
2021/05/16 00:14:54;;;;;;;4.10;3.20;;;15.30;99.90;;;;;;6299101;28;20473;-65
2021/05/16 00:17:58;;;;;;;3.27;2.97;;;15.30;99.90;;;;;;6299369;28;20469;-65
2021/05/16 00:21:01;;;;;;;3.37;3.07;;;15.30;99.90;;;;;;6299168;28;20480;-64
2021/05/16 00:24:04;;;;;;;3.80;3.37;;;15.20;99.90;;;;;;6299376;28;20473;-66
2021/05/16 00:27:07;;;;;;;4.87;4.37;;;15.20;99.90;;;;;;6298901;28;20473;-66
2021/05/16 00:30:12;;;;;;;4.07;3.67;;;15.10;99.90;;;;;;6294511;28;20805;-66
2021/05/16 00:33:16;;;;;;;3.60;3.30;;;15.10;99.90;;;;;;6298352;28;20476;-66
2021/05/16 00:36:18;;;;;;;3.53;3.20;;;15.10;99.90;;;;;;6299243;28;20484;-66
2021/05/16 00:39:21;;;;;;;3.00;2.70;;;15.20;99.90;;;;;;6298889;28;20488;-66
2021/05/16 00:42:24;;;;;;;3.17;2.60;;;15.20;99.90;;;;;;6299200;28;20473;-66
2021/05/16 00:45:28;;;;;;;4.13;3.00;;;15.20;99.90;;;;;;6298783;28;20469;-66
2021/05/16 00:48:32;;;;;;;3.00;2.80;;;15.10;99.90;;;;;;6298987;28;20480;-66
2021/05/16 00:51:34;;;;;;;3.47;3.10;;;15.10;99.90;;;;;;6298744;28;20481;-66
2021/05/16 00:54:37;;;;;;;3.70;3.40;;;15.10;99.90;;;;;;6298825;28;20814;-66
2021/05/16 00:57:40;;;;;;;2.77;2.57;;;15.10;99.90;;;;;;6298927;28;20469;-66
2021/05/16 01:00:43;;;;;;;3.13;2.93;;;15.10;99.90;;;;;;6298541;28;20469;-66
2021/05/16 01:03:47;;;;;;;3.60;3.10;;;15.10;99.90;;;;;;6299089;28;20476;-66
2021/05/16 01:06:50;;;;;;;3.10;2.90;;;15.10;99.90;;;;;;6298551;28;20486;-65
2021/05/16 01:09:52;;;;;;;3.57;3.27;;;15.10;99.90;;;;;;6298878;28;20465;-66
2021/05/16 01:12:56;;;;;;;3.70;3.40;;;15.10;99.90;;;;;;6298291;28;20480;-64
2021/05/16 01:15:59;;;;;;;2.97;2.63;;;15.10;99.90;;;;;;6298700;28;20442;-64
2021/05/16 01:19:03;;;;;;;3.60;3.27;;;15.10;99.90;;;;;;6298319;28;20553;-65
2021/05/16 01:22:08;;;;;;;3.33;2.80;;;15.00;99.90;;;;;;6298826;28;20433;-65
2021/05/16 01:25:12;;;;;;;3.23;3.00;;;15.00;99.90;;;;;;6298364;28;20465;-65
2021/05/16 01:28:17;;;;;;;3.40;3.20;;;15.00;99.90;;;;;;6298708;28;20778;-65
2021/05/16 01:31:19;;;;;;;3.30;3.10;;;15.10;99.90;;;;;;6298036;28;20469;-65
2021/05/16 01:34:22;;;;;;;3.23;2.93;;;15.10;99.90;;;;;;6298722;28;20465;-65
2021/05/16 01:37:26;;;;;;;3.40;2.90;;;15.10;99.90;;;;;;6298465;28;20461;-65
2021/05/16 01:40:29;;;;;;;3.77;3.27;;;15.10;99.90;;;;;;6298453;28;20467;-65
2021/05/16 01:43:35;;;;;;;3.27;2.97;;;15.00;99.90;;;;;;6298595;28;20461;-66
2021/05/16 01:46:38;;;;;;;3.77;3.33;;;15.10;99.90;;;;;;6302931;28;20491;-66
2021/05/16 01:49:43;;;;;;;3.60;3.30;;;15.00;99.90;;;;;;6302974;28;20481;-66
2021/05/16 01:52:48;;;;;;;3.47;3.17;;;15.00;99.90;;;;;;6302743;28;20469;-66
2021/05/16 01:55:51;;;;;;;4.03;3.23;;;15.00;99.90;;;;;;6302982;28;20476;-66
2021/05/16 01:58:56;;;;;;;6.10;4.23;;;15.00;99.90;;;;;;6302382;28;20783;-66
2021/05/16 02:01:59;;;;;;;4.97;3.87;;;15.00;99.90;;;;;;6302636;28;20477;-66
2021/05/16 02:05:04;;;;;;;6.20;5.30;;;14.90;99.90;;;;;;6302465;28;20464;-67
2021/05/16 02:08:08;;;;;;;5.83;5.10;;;14.80;99.90;;;;;;6302321;28;20469;-66
2021/05/16 02:11:11;;;;;;;5.70;5.30;;;14.80;99.90;;;;;;6301962;28;20572;-66
2021/05/16 02:14:23;;;;;;;5.07;4.57;;;14.70;99.90;;;;;;6302362;28;20488;-66
2021/05/16 02:17:25;;;;;;;5.37;4.77;;;14.50;99.90;;;;;;6302148;28;20477;-63
2021/05/16 02:20:29;;;;;;;4.60;4.20;;;14.50;99.90;;;;;;6302100;28;21029;-67
2021/05/16 02:23:32;;;;;;;6.23;4.97;;;14.50;99.90;;;;;;6302024;28;20977;-67
2021/05/16 02:26:35;;;;;;;5.77;5.20;;;14.50;99.90;;;;;;6302208;28;20469;-67
2021/05/16 02:29:38;;;;;;;5.47;5.00;;;14.60;99.90;;;;;;6301959;28;21090;-67
2021/05/16 02:32:41;;;;;;;5.60;4.50;;;14.60;99.90;;;;;;6301659;28;20987;-66
2021/05/16 02:35:44;;;;;;;4.93;4.30;;;14.70;99.90;;;;;;6301745;28;20473;-63
2021/05/16 02:38:47;;;;;;;5.67;4.27;;;14.80;99.90;;;;;;6292170;28;20983;-66
2021/05/16 02:41:50;;;;;;;4.37;4.07;;;14.80;99.90;;;;;;6301669;28;20465;-66
2021/05/16 02:44:53;;;;;;;5.13;4.73;;;14.90;99.90;;;;;;6301118;28;20495;-67
2021/05/16 02:47:55;;;;;;;4.90;4.50;;;14.80;99.90;;;;;;6301423;28;20789;-66
2021/05/16 02:50:58;;;;;;;5.27;4.80;;;14.90;99.90;;;;;;6301113;28;20479;-66
2021/05/16 02:54:02;;;;;;;4.40;4.00;;;14.80;99.90;;;;;;6301642;28;20800;-67
2021/05/16 02:57:05;;;;;;;4.90;4.50;;;14.70;99.90;;;;;;6300485;28;20492;-64
2021/05/16 03:00:09;;;;;;;4.87;4.17;;;14.60;99.90;;;;;;6301162;28;20484;-64
2021/05/16 03:03:11;;;;;;;4.37;3.97;;;14.50;99.90;;;;;;6301437;28;20469;-64
2021/05/16 03:06:14;;;;;;;3.50;3.30;;;14.40;99.90;;;;;;6301112;28;20484;-63
2021/05/16 03:09:18;;;;;;;6.63;3.60;;;14.30;99.90;;;;;;6300890;28;20473;-66
2021/05/16 03:12:21;;;;;;;4.97;3.20;;;14.40;99.90;;;;;;6300487;28;20964;-65
2021/05/16 03:15:23;;;;;;;3.47;3.17;;;14.40;99.90;;;;;;6300530;28;20965;-63
2021/05/16 03:18:27;;;;;;;3.10;2.80;;;14.50;99.90;;;;;;6300570;28;20474;-64
2021/05/16 03:21:30;;;;;;;3.60;3.20;;;14.60;99.90;;;;;;6300646;28;20465;-63
2021/05/16 03:24:36;;;;;;;3.00;2.80;;;14.60;99.90;;;;;;6300204;28;20465;-63
2021/05/16 03:27:39;;;;;;;4.00;3.07;;;14.60;99.90;;;;;;6300425;28;20484;-64
2021/05/16 03:30:42;;;;;;;3.43;3.13;;;14.60;99.90;;;;;;6299995;28;20487;-63
2021/05/16 03:33:45;;;;;;;3.90;3.60;;;14.50;99.90;;;;;;6300293;28;20793;-63
2021/05/16 03:36:47;;;;;;;3.70;3.50;;;14.50;99.90;;;;;;6299821;28;20567;-63
2021/05/16 03:39:51;;;;;;;3.80;3.10;;;14.50;99.90;;;;;;6299699;28;20479;-64
2021/05/16 03:42:54;;;;;;;3.50;3.20;;;14.60;99.90;;;;;;6290737;28;20461;-64
2021/05/16 03:45:57;;;;;;;3.97;3.00;;;14.60;99.90;;;;;;6300105;28;20437;-65
2021/05/16 03:49:01;;;;;;;3.50;3.20;;;14.60;99.90;;;;;;6300311;28;20445;-65
2021/05/16 03:52:04;;;;;;;3.10;2.80;;;14.50;99.90;;;;;;6299634;28;20480;-65
2021/05/16 03:55:09;;;;;;;3.80;3.50;;;14.40;99.90;;;;;;6300324;28;20445;-65
2021/05/16 03:58:12;;;;;;;3.27;3.07;;;14.30;99.90;;;;;;6299961;28;20526;-65
2021/05/16 04:01:15;;;;;;;2.90;2.70;;;14.30;99.90;;;;;;6299940;28;20461;-65
2021/05/16 04:04:17;;;;;;;2.80;2.60;;;14.40;99.90;;;;;;6299799;28;20464;-65
2021/05/16 04:07:20;;;;;;;3.17;2.90;;;14.40;99.90;;;;;;6298906;28;20479;-64
2021/05/16 04:10:24;;;;;;;4.90;2.47;;;14.40;99.90;;;;;;6299479;28;20465;-65
2021/05/16 04:13:27;;;;;;;2.47;2.27;;;14.50;99.90;;;;;;6299581;28;20465;-65
2021/05/16 04:16:33;;;;;;;3.03;2.53;;;14.60;99.90;;;;;;6299208;28;20461;-66
2021/05/16 04:19:37;;;;;;;2.93;2.60;;;14.60;99.90;;;;;;6299437;28;20819;-66
2021/05/16 04:22:39;;;;;;;2.63;2.40;;;14.70;99.90;;;;;;6299589;28;20461;-66
2021/05/16 04:25:43;;;;;;;2.27;2.13;;;14.80;99.90;;;;;;6299472;28;20469;-65
2021/05/16 04:28:46;;;;;;;2.50;2.30;;;14.80;99.90;;;;;;6299553;28;20505;-65
2021/05/16 04:31:48;;;;;;;2.60;2.40;;;14.80;99.90;;;;;;6298764;28;20473;-64
2021/05/16 04:34:51;;;;;;;3.00;2.80;;;14.90;99.90;;;;;;6299384;28;20465;-63
2021/05/16 04:37:54;;;;;;;2.63;2.40;;;14.90;99.90;;;;;;6299100;28;20498;-63
2021/05/16 04:40:57;;;;;;;2.80;2.60;;;15.00;99.90;;;;;;6299303;28;20477;-65
2021/05/16 04:44:00;;;;;;;2.47;1.87;;;15.00;99.90;;;;;;6298782;28;20491;-65
2021/05/16 04:47:03;;;;;;;1.97;1.87;;;15.10;99.90;;;;;;6289466;28;20476;-66
2021/05/16 04:50:06;;;;;;;2.10;2.00;;;15.10;99.90;;;;;;6298720;28;21133;-66
2021/05/16 04:53:09;;;;;;;2.30;2.10;;;15.20;99.90;;;;;;6299096;28;20481;-66
2021/05/16 04:56:13;;;;;;;2.03;1.93;;;15.20;99.90;;;;;;6299271;28;20469;-66
2021/05/16 04:59:15;;;;;;;2.53;2.43;;;15.20;99.90;;;;;;6299118;28;20523;-66
2021/05/16 05:02:19;;;;;;;2.07;1.97;;;15.30;99.90;;;;;;6298888;28;20476;-66
2021/05/16 05:05:21;;;;;;;2.03;1.90;;;15.20;99.90;;;;;;6298776;28;20472;-63
2021/05/16 05:08:26;;;;;;;3.67;2.00;;;15.20;99.90;;;;;;6299335;28;20453;-64
2021/05/16 05:11:33;;;;;;;2.50;2.00;;;15.00;99.90;;;;;;6298247;28;20851;-65
2021/05/16 05:14:35;;;;;;;2.43;2.23;;;14.90;99.90;;;;;;6298508;28;20965;-66
2021/05/16 05:17:40;;;;;;;2.53;2.10;;;14.80;99.90;;;;;;6298587;28;20472;-64
2021/05/16 05:20:43;;;;;;;2.23;2.10;;;14.70;99.90;;;;;;6302405;28;20473;-64
2021/05/16 05:23:46;;;;;;;1.90;1.80;;;14.60;99.90;;;;;;6303531;28;20586;-64
2021/05/16 05:26:49;;;;;;;2.27;2.07;;;14.60;99.90;;;;;;6303316;28;20468;-64
2021/05/16 05:29:52;;;;;;;2.10;1.90;;;14.60;99.90;;;;;;6302878;28;20473;-64
2021/05/16 05:32:55;;;;;;;4.03;2.20;;;14.60;99.90;;;;;;6302301;28;20469;-65
2021/05/16 05:35:58;;;;;;;2.20;1.77;;;14.60;99.90;;;;;;6302443;28;20469;-65
2021/05/16 05:39:00;;;;;;;2.10;2.00;;;14.60;99.90;;;;;;6302053;28;20963;-65
2021/05/16 05:42:04;;;;;;;3.77;2.30;;;14.60;99.90;;;;;;6302420;28;20473;-66
2021/05/16 05:45:09;;;;;;;1.70;1.60;;;14.70;99.90;;;;;;6300197;28;20465;-65
2021/05/16 05:48:16;;;;;;;2.17;1.50;;;14.80;99.90;;;;;;6302812;28;20461;-67
2021/05/16 05:51:20;;;;;;;1.90;1.80;;;14.80;99.90;;;;;;6297682;28;20473;-64
2021/05/16 05:54:23;;;;;;;1.30;1.20;;;14.80;99.90;;;;;;6303046;28;20491;-66
2021/05/16 05:57:28;;;;;;;2.03;1.40;;;14.80;99.90;;;;;;6303108;28;20542;-67
2021/05/16 06:00:32;;;;;;;3.10;1.70;;;15.10;99.90;;;;;;6303285;28;20496;-69
2021/05/16 06:03:35;;;;;;;1.33;1.23;;;15.30;99.90;;;;;;6302668;28;20469;-67
2021/05/16 06:06:38;;;;;;;1.70;1.37;;;15.40;99.90;;;;;;6302767;28;20503;-68
2021/05/16 06:09:44;;;;;;;1.10;1.00;;;15.60;99.90;;;;;;6302927;28;20827;-65
2021/05/16 06:12:49;;;;;;;1.43;1.23;;;15.70;99.90;;;;;;6302043;28;20492;-67
2021/05/16 06:15:52;;;;;;;1.70;1.50;;;15.90;99.90;;;;;;6302328;28;20474;-68
2021/05/16 06:18:57;;;;;;;1.40;1.30;;;16.00;99.90;;;;;;6301703;28;20445;-65
2021/05/16 06:22:01;;;;;;;1.10;1.10;;;16.30;99.90;;;;;;6302587;28;20493;-64
2021/05/16 06:25:06;;;;;;;2.50;1.03;;;16.40;99.90;;;;;;6302788;28;20453;-66
2021/05/16 06:28:09;;;;;;;1.53;1.27;;;16.60;99.90;;;;;;6302017;28;20442;-67
2021/05/16 06:31:14;;;;;;;1.70;1.53;;;16.80;99.90;;;;;;6300763;28;20472;-64
2021/05/16 06:34:16;;;;;;;0.80;0.80;;;16.90;99.90;;;;;;6301956;28;20465;-64
2021/05/16 06:37:20;;;;;;;0.90;0.70;;;17.40;97.30;;;;;;6301998;28;20465;-64
2021/05/16 06:40:23;;;;;;;1.20;0.83;;;17.90;96.40;;;;;;6302327;28;20961;-64
2021/05/16 06:43:26;;;;;;;1.63;0.90;;;19.60;95.60;;;;;;6301389;28;20937;-65
2021/05/16 06:46:29;;;;;;;0.87;0.60;;;21.90;90.00;;;;;;6301513;28;20686;-65
2021/05/16 06:49:32;;;;;;;1.10;0.53;;;22.80;80.70;;;;;;6301417;28;20230;-64
2021/05/16 06:52:35;;;;;;;1.73;0.70;;;23.10;74.60;;;;;;6297029;28;20231;-64
2021/05/16 06:55:38;;;;;;;0.87;0.60;;;22.70;75.10;;;;;;6301450;28;20230;-64
2021/05/16 06:58:42;;;;;;;0.80;0.73;;;23.40;72.90;;;;;;6301448;28;20546;-64
2021/05/16 07:01:45;;;;;;;2.83;0.77;;;23.00;70.50;;;;;;6300537;28;20227;-64
2021/05/16 07:04:48;;;;;;;0.90;0.53;;;22.80;71.60;;;;;;6301202;28;20227;-64
2021/05/16 07:07:51;;;;;;;1.17;1.07;;;24.20;67.00;;;;;;6301037;28;20233;-65
2021/05/16 07:10:54;;;;;;;0.83;0.50;;;26.00;62.50;;;;;;6300918;28;20235;-64
2021/05/16 07:13:58;;;;;;;1.87;0.70;;;27.70;56.70;;;;;;6300825;28;20234;-65
2021/05/16 07:17:00;;;;;;;0.60;0.40;;;29.00;51.70;;;;;;6300517;28;20241;-65
2021/05/16 07:20:04;;;;;;;1.13;0.70;;;30.50;48.40;;;;;;6301585;28;20234;-65
2021/05/16 07:23:07;;;;;;;0.93;0.50;;;30.80;42.60;;;;;;6300538;28;20240;-65
2021/05/16 07:26:09;;;;;;;0.80;0.60;;;29.60;42.70;;;;;;6300866;28;20682;-67
2021/05/16 07:29:13;;;;;;;0.60;0.40;;;28.00;43.40;;;;;;6299139;28;20255;-64
2021/05/16 07:32:16;;;;;;;0.97;0.53;;;26.80;46.10;;;;;;6300447;28;20674;-65
2021/05/16 07:35:19;;;;;;;0.90;0.50;;;26.00;49.10;;;;;;6299204;28;20253;-64
2021/05/16 07:38:22;;;;;;;0.60;0.40;;;25.10;48.60;;;;;;6300402;28;20245;-64
2021/05/16 07:41:24;;;;;;;0.70;0.40;;;24.10;48.70;;;;;;6299912;28;20235;-64
2021/05/16 07:44:28;;;;;;;0.80;0.50;;;23.20;50.40;;;;;;6300174;28;20609;-67
2021/05/16 07:47:31;;;;;;;0.67;0.50;;;22.50;52.00;;;;;;6300141;28;20244;-67
2021/05/16 07:50:35;;;;;;;0.80;0.40;;;21.90;52.90;;;;;;6299633;28;20697;-66
2021/05/16 07:53:38;;;;;;;1.07;0.40;;;21.90;55.50;;;;;;6300274;28;20242;-66
2021/05/16 07:56:41;;;;;;;1.00;0.50;;;23.50;53.50;;;;;;6295152;28;20237;-66
2021/05/16 07:59:44;;;;;;;0.60;0.40;;;24.80;51.20;;;;;;6299841;28;20239;-67
2021/05/16 08:02:47;;;;;;;1.00;0.60;;;25.90;47.80;;;;;;6299328;28;20234;-67
2021/05/16 08:05:51;;;;;;;1.73;0.50;;;27.50;47.30;;;;;;6299790;28;20252;-66
2021/05/16 08:08:54;;;;;;;0.80;0.50;;;30.50;42.30;;;;;;6299508;28;20241;-66
2021/05/16 08:11:57;;;;;;;1.80;0.50;;;32.50;38.20;;;;;;6299227;28;20690;-65
2021/05/16 08:15:01;;;;;;;0.70;0.40;;;33.30;36.50;;;;;;6299292;28;20245;-67
2021/05/16 08:18:04;;;;;;;1.50;0.40;;;32.90;34.30;;;;;;6299318;28;20237;-66
2021/05/16 08:21:07;;;;;;;0.70;0.40;;;32.10;34.70;;;;;;6297374;28;20230;-66
2021/05/16 08:24:10;;;;;;;0.70;0.43;;;30.90;35.70;;;;;;6297107;28;20226;-66
2021/05/16 08:27:13;;;;;;;0.70;0.40;;;29.80;36.50;;;;;;6297425;28;20566;-65
2021/05/16 08:30:18;;;;;;;0.80;0.60;;;29.40;38.20;;;;;;6297334;28;20589;-67
2021/05/16 08:33:20;;;;;;;1.70;0.60;;;29.20;38.90;;;;;;6297016;28;20233;-65
2021/05/16 08:36:23;;;;;;;0.90;0.60;;;28.10;39.90;;;;;;6298883;28;20222;-68
2021/05/16 08:39:26;;;;;;;0.77;0.50;;;27.10;41.10;;;;;;6299487;28;20606;-67
2021/05/16 08:42:29;;;;;;;2.40;0.60;;;26.60;42.80;;;;;;6298930;28;20704;-64
2021/05/16 08:45:33;;;;;;;1.80;0.60;;;26.20;43.50;;;;;;6299193;28;20257;-67
2021/05/16 08:48:38;;;;;;;0.90;0.77;;;26.00;44.30;;;;;;6299042;28;20379;-67
2021/05/16 08:51:45;;;;;;;1.07;0.80;;;25.40;44.80;;;;;;6299419;28;20546;-67
2021/05/16 08:54:52;;;;;;;0.70;0.50;;;24.80;46.80;;;;;;6301208;28;20250;-68
2021/05/16 08:58:05;;;;;;;1.53;0.70;;;24.10;47.20;;;;;;6299375;28;20623;-71
2021/05/16 09:01:22;;;;;;;0.70;0.60;;;23.90;48.20;;;;;;6303938;28;20809;-70
2021/05/16 09:04:33;;;;;;;0.80;0.50;;;23.90;49.50;;;;;;6304006;28;20223;-70
2021/05/16 09:07:36;;;;;;;0.90;0.70;;;23.70;50.00;;;;;;6304009;28;20565;-69
2021/05/16 09:10:39;;;;;;;0.70;0.60;;;22.90;49.90;;;;;;6304096;28;20234;-69
2021/05/16 09:13:45;;;;;;;0.70;0.60;;;22.60;50.50;;;;;;6303445;28;20230;-69
2021/05/16 09:16:48;;;;;;;1.03;0.80;;;22.00;52.20;;;;;;6303780;28;20241;-69
2021/05/16 09:19:53;;;;;;;2.00;1.00;;;21.30;53.80;;;;;;6303303;28;20226;-63
2021/05/16 09:22:56;;;;;;;0.90;0.70;;;20.80;55.80;;;;;;6303668;28;20227;-68
2021/05/16 09:26:12;;;;;;;0.67;0.60;;;20.90;55.20;;;;;;6303227;28;20288;-68
2021/05/16 09:29:19;;;;;;;0.90;0.60;;;21.00;55.70;;;;;;6303340;28;20231;-68
2021/05/16 09:32:27;;;;;;;1.30;0.63;;;21.20;55.10;;;;;;6302876;28;20233;-69
2021/05/16 09:35:38;;;;;;;0.80;0.50;;;21.40;54.50;;;;;;6302736;28;20226;-62
2021/05/16 09:38:41;;;;;;;0.70;0.60;;;21.60;55.20;;;;;;6300460;28;20245;-66
2021/05/16 09:42:05;;;;;;;0.83;0.63;;;21.80;53.90;;;;;;6301889;28;20219;-65
2021/05/16 09:45:09;;;;;;;0.70;0.70;;;21.70;53.10;;;;;;6301846;28;20227;-67
2021/05/16 09:48:36;;;;;;;1.57;0.57;;;21.80;53.50;;;;;;6300405;28;20223;-65
2021/05/16 09:51:39;;;;;;;1.00;0.70;;;22.00;52.60;;;;;;6287715;28;20588;-69
2021/05/16 09:55:00;;;;;;;1.67;0.70;;;22.30;52.90;;;;;;6283386;28;20655;-66
2021/05/16 09:58:03;;;;;;;1.10;0.70;;;22.70;52.20;;;;;;6288299;28;20257;-63
2021/05/16 10:01:06;;;;;;;0.87;0.70;;;22.90;52.80;;;;;;6300618;28;20222;-61
2021/05/16 10:04:09;;;;;;;0.70;0.70;;;23.00;52.70;;;;;;6287361;28;20199;-61
2021/05/16 10:07:13;;;;;;;1.73;0.70;;;22.70;51.90;;;;;;6282571;28;20234;-62
2021/05/16 10:10:15;;;;;;;2.03;1.10;;;22.90;52.10;;;;;;6278602;28;20249;-63
2021/05/16 10:13:18;;;;;;;0.97;0.73;;;23.00;51.90;;;;;;6301135;28;20238;-63
2021/05/16 10:16:21;;;;;;;2.90;0.70;;;23.00;52.00;;;;;;6301890;28;20717;-63
2021/05/16 10:19:30;;;;;;;1.17;0.70;;;22.90;52.80;;;;;;6300877;28;20234;-63
2021/05/16 10:22:33;;;;;;;0.70;0.60;;;22.90;51.60;;;;;;6298437;28;20674;-61
2021/05/16 10:25:40;;;;;;;0.70;0.60;;;22.90;51.70;;;;;;6276125;28;20230;-61
2021/05/16 10:28:57;;;;;;;2.23;1.20;;;22.80;51.60;;;;;;6276563;28;20234;-61
2021/05/16 10:32:06;;;;;;;0.80;0.60;;;22.70;53.20;;;;;;6276417;28;20247;-61
2021/05/16 10:35:11;;;;;;;0.70;0.70;;;22.80;52.30;;;;;;6276818;28;20231;-61
2021/05/16 10:38:32;;;;;;;0.60;0.60;;;22.50;51.40;;;;;;6276645;28;20603;-60
2021/05/16 10:41:35;;;;;;;1.17;1.07;;;22.10;53.20;;;;;;6276724;28;20231;-61
2021/05/16 10:44:40;;;;;;;1.47;0.87;;;21.80;54.90;;;;;;6276110;28;20242;-61
2021/05/16 10:47:54;;;;;;;1.30;0.80;;;21.60;56.00;;;;;;6276452;28;20242;-61
2021/05/16 10:50:59;;;;;;;0.80;0.60;;;21.70;53.70;;;;;;6297093;28;20231;-61
2021/05/16 10:54:29;;;;;;;1.20;0.60;;;21.90;54.30;;;;;;6300418;28;20231;-62
2021/05/16 10:57:36;;;;;;;0.80;0.60;;;21.90;52.50;;;;;;6291213;28;20238;-61
2021/05/16 11:00:42;;;;;;;0.70;0.50;;;21.70;54.00;;;;;;6275586;28;20575;-61
2021/05/16 11:03:56;;;;;;;0.60;0.50;;;21.90;52.70;;;;;;6276348;28;20406;-61
2021/05/16 11:07:00;;;;;;;0.90;0.60;;;22.10;52.70;;;;;;6266679;28;20226;-61
2021/05/16 11:10:25;;;;;;;1.57;0.47;;;21.70;51.90;;;;;;6276443;28;20235;-61
2021/05/16 11:13:31;;;;;;;0.80;0.60;;;21.10;54.10;;;;;;6275562;28;20227;-61
2021/05/16 11:16:34;;;;;;;0.67;0.57;;;21.20;54.30;;;;;;6275720;28;20232;-61
2021/05/16 11:19:37;;;;;;;0.70;0.60;;;21.40;55.50;;;;;;6275776;28;20223;-61
2021/05/16 11:22:42;;;;;;;0.80;0.43;;;21.70;54.80;;;;;;6277426;28;20219;-61
2021/05/16 11:25:45;;;;;;;0.70;0.60;;;21.70;54.20;;;;;;6300327;28;20229;-62
2021/05/16 11:28:55;;;;;;;1.47;0.50;;;22.00;54.00;;;;;;6300416;28;20233;-63
2021/05/16 11:32:05;;;;;;;1.13;0.70;;;22.20;53.00;;;;;;6300357;28;20391;-61
2021/05/16 11:35:11;;;;;;;0.70;0.50;;;21.90;52.90;;;;;;6300280;28;20242;-61
2021/05/16 11:38:25;;;;;;;0.70;0.60;;;22.10;54.70;;;;;;6300297;28;20227;-62
2021/05/16 11:41:33;;;;;;;1.00;0.77;;;22.10;53.50;;;;;;6300158;28;20245;-61
2021/05/16 11:44:36;;;;;;;0.60;0.50;;;22.10;54.10;;;;;;6298398;28;20230;-60
2021/05/16 11:47:40;;;;;;;0.50;0.40;;;21.70;54.40;;;;;;6297113;28;20227;-60
2021/05/16 11:50:44;;;;;;;0.97;0.63;;;21.60;54.70;;;;;;6297309;28;20227;-60
2021/05/16 11:53:53;;;;;;;1.10;0.80;;;21.70;54.50;;;;;;6298967;28;20566;-60
2021/05/16 11:56:55;;;;;;;0.60;0.40;;;21.60;55.20;;;;;;6299553;28;20249;-60
2021/05/16 11:59:58;;;;;;;0.90;0.60;;;21.20;56.00;;;;;;6299937;28;20231;-58
2021/05/16 12:03:13;;;;;;;0.77;0.60;;;21.10;57.30;;;;;;6299790;28;20273;-64
2021/05/16 12:06:15;;;;;;;0.93;0.80;;;21.10;57.10;;;;;;6299696;28;20243;-63
2021/05/16 12:09:20;;;;;;;1.07;0.70;;;21.10;57.50;;;;;;6299999;28;20231;-63
2021/05/16 12:12:25;;;;;;;1.20;0.60;;;21.00;57.70;;;;;;6299162;28;20683;-60
2021/05/16 12:15:28;;;;;;;1.00;0.60;;;20.80;58.80;;;;;;6299296;28;20352;-64
2021/05/16 12:18:31;;;;;;;1.10;1.00;;;20.70;60.60;;;;;;6299151;28;20577;-66
2021/05/16 12:21:37;;;;;;;0.90;0.50;;;20.70;60.20;;;;;;6299461;28;20241;-63
2021/05/16 12:24:45;;;;;;;0.80;0.60;;;20.60;54.90;;;;;;6299274;28;20686;-60
2021/05/16 12:27:47;;;;;;;0.57;0.50;;;20.40;55.00;;;;;;6299387;28;20242;-61
2021/05/16 12:30:51;;;;;;;1.43;0.60;;;20.40;54.60;;;;;;6298344;28;20238;-61
2021/05/16 12:33:58;;;;;;;0.50;0.30;;;20.40;57.00;;;;;;6299248;28;20256;-62
2021/05/16 12:37:04;;;;;;;1.20;0.40;;;20.50;60.10;;;;;;6298576;28;20238;-61
2021/05/16 12:40:23;;;;;;;0.60;0.40;;;20.40;53.80;;;;;;6299580;28;20606;-62
2021/05/16 12:43:26;;;;;;;3.17;0.60;;;20.40;55.70;;;;;;6299216;28;20227;-61
2021/05/16 12:46:40;;;;;;;0.70;0.67;;;20.40;58.60;;;;;;6299230;28;20223;-61
2021/05/16 12:49:42;;;;;;;0.87;0.60;;;20.60;59.60;;;;;;6299092;28;20227;-61
2021/05/16 12:52:45;;;;;;;2.37;0.87;;;20.60;58.30;;;;;;6299360;28;20233;-61
2021/05/16 12:55:49;;;;;;;0.80;0.80;;;20.50;61.70;;;;;;6299074;28;20265;-60
2021/05/16 12:58:56;;;;;;;1.27;0.90;;;20.40;64.60;;;;;;6278796;28;20285;-61
2021/05/16 13:02:07;;;;;;;0.70;0.60;;;21.00;63.60;;;;;;6274412;28;20544;-62
2021/05/16 13:05:14;;;;;;;1.63;0.47;;;21.50;61.20;;;;;;6273856;28;20691;-63
2021/05/16 13:08:31;;;;;;;0.83;0.40;;;21.60;57.70;;;;;;6273635;28;20269;-62
2021/05/16 13:11:46;;;;;;;1.50;0.70;;;21.30;57.40;;;;;;6274216;28;20242;-62
2021/05/16 13:14:53;;;;;;;0.80;0.60;;;21.30;58.40;;;;;;6272963;28;20228;-62
2021/05/16 13:17:56;;;;;;;0.87;0.60;;;21.20;59.20;;;;;;6259460;28;20235;-61
2021/05/16 13:21:28;;;;;;;1.20;0.80;;;21.10;60.70;;;;;;6273799;28;20618;-61
2021/05/16 13:24:48;;;;;;;0.90;0.60;;;20.90;62.80;;;;;;6277740;28;20229;-60
2021/05/16 13:27:56;;;;;;;2.20;0.93;;;20.80;62.80;;;;;;6298255;28;20227;-60
2021/05/16 13:31:02;;;;;;;0.60;0.50;;;20.60;64.00;;;;;;6298124;28;20223;-62
2021/05/16 13:34:05;;;;;;;0.70;0.50;;;20.40;63.80;;;;;;6298505;28;20207;-61
2021/05/16 13:37:07;;;;;;;1.23;1.03;;;20.60;65.80;;;;;;6298169;28;20215;-62
2021/05/16 13:40:12;;;;;;;1.73;0.60;;;20.60;62.70;;;;;;6299260;28;20272;-62
2021/05/16 13:43:16;;;;;;;2.30;1.00;;;20.50;64.40;;;;;;6302872;28;20199;-61
2021/05/16 13:46:19;;;;;;;1.77;0.60;;;20.20;66.40;;;;;;6302304;28;20233;-62
2021/05/16 13:49:22;;;;;;;1.43;0.57;;;20.20;65.20;;;;;;6302318;28;20227;-62
2021/05/16 13:52:25;;;;;;;0.80;0.60;;;20.40;64.00;;;;;;6302223;28;20249;-62
2021/05/16 13:55:28;;;;;;;0.77;0.77;;;20.50;63.60;;;;;;6302907;28;20238;-62
2021/05/16 13:58:32;;;;;;;0.80;0.80;;;20.60;62.50;;;;;;6302024;28;20707;-62
2021/05/16 14:01:36;;;;;;;1.20;0.73;;;20.30;62.70;;;;;;6302643;28;20559;-62
2021/05/16 14:04:38;;;;;;;0.60;0.60;;;20.10;61.80;;;;;;6302160;28;20227;-60
2021/05/16 14:07:41;;;;;;;2.40;1.10;;;19.80;63.20;;;;;;6302477;28;20227;-64
2021/05/16 14:10:44;;;;;;;0.60;0.50;;;19.80;65.60;;;;;;6302086;28;20230;-63
2021/05/16 14:13:47;;;;;;;1.40;0.80;;;19.90;66.10;;;;;;6301636;28;20694;-64
2021/05/16 14:16:51;;;;;;;1.73;0.70;;;19.80;66.90;;;;;;6301668;28;20246;-64
2021/05/16 14:19:53;;;;;;;0.93;0.73;;;19.80;67.40;;;;;;6296860;28;20234;-63
2021/05/16 14:22:56;;;;;;;0.90;0.77;;;19.90;68.00;;;;;;6301808;28;20227;-65
2021/05/16 14:25:59;;;;;;;0.80;0.70;;;20.00;68.10;;;;;;6301596;28;20223;-63
2021/05/16 14:29:03;;;;;;;2.50;0.70;;;20.10;67.40;;;;;;6301564;28;20221;-63
2021/05/16 14:32:10;;;;;;;0.80;0.80;;;19.80;68.30;;;;;;6298736;28;20219;-63
2021/05/16 14:35:14;;;;;;;0.90;0.70;;;20.00;68.10;;;;;;6300947;28;20227;-65
2021/05/16 14:38:17;;;;;;;1.13;0.60;;;20.20;67.00;;;;;;6300665;28;20226;-64
2021/05/16 14:41:20;;;;;;;1.20;0.87;;;20.30;63.70;;;;;;6298910;28;20241;-62
2021/05/16 14:44:23;;;;;;;0.97;0.87;;;20.30;64.50;;;;;;6301344;28;20223;-63
2021/05/16 14:47:26;;;;;;;1.00;0.70;;;20.40;63.70;;;;;;6300234;28;20230;-63
2021/05/16 14:50:40;;;;;;;0.70;0.60;;;20.40;61.00;;;;;;6284182;28;20227;-63
2021/05/16 14:53:43;;;;;;;2.07;0.70;;;20.60;59.70;;;;;;6272272;28;20238;-63
2021/05/16 14:56:46;;;;;;;1.63;1.27;;;20.50;58.50;;;;;;6275325;28;20226;-63
2021/05/16 14:59:49;;;;;;;1.90;0.63;;;20.50;58.50;;;;;;6297233;28;20226;-63
2021/05/16 15:02:52;;;;;;;1.00;0.70;;;20.60;56.30;;;;;;6297899;28;20234;-63
2021/05/16 15:05:55;;;;;;;1.37;0.50;;;20.30;55.80;;;;;;6299473;28;20337;-64
2021/05/16 15:09:01;;;;;;;1.70;0.70;;;20.20;57.50;;;;;;6298415;28;20231;-63
2021/05/16 15:12:05;;;;;;;0.70;0.60;;;20.00;58.30;;;;;;6298245;28;20226;-63
2021/05/16 15:15:10;;;;;;;0.93;0.80;;;19.90;58.30;;;;;;6297882;28;20563;-63
2021/05/16 15:18:12;;;;;;;2.13;1.23;;;19.90;59.20;;;;;;6298333;28;20574;-63
2021/05/16 15:21:16;;;;;;;1.00;0.80;;;19.90;63.30;;;;;;6299433;28;20245;-63
2021/05/16 15:24:19;;;;;;;2.60;1.17;;;19.70;66.20;;;;;;6291325;28;20230;-63
2021/05/16 15:27:21;;;;;;;1.87;1.47;;;19.60;68.10;;;;;;6300800;28;20227;-63
2021/05/16 15:30:25;;;;;;;1.50;1.40;;;19.80;69.60;;;;;;6300123;28;20241;-63
2021/05/16 15:33:28;;;;;;;1.50;1.40;;;19.90;70.10;;;;;;6300307;28;20705;-63
2021/05/16 15:36:31;;;;;;;3.20;1.10;;;20.10;70.10;;;;;;6300020;28;20230;-63
2021/05/16 15:39:34;;;;;;;1.20;1.00;;;20.20;71.00;;;;;;6300150;28;20234;-63
2021/05/16 15:42:37;;;;;;;1.53;1.43;;;20.20;71.90;;;;;;6300094;28;20320;-63
2021/05/16 15:45:41;;;;;;;3.70;1.37;;;20.20;73.30;;;;;;6299880;28;20241;-63
2021/05/16 15:48:45;;;;;;;2.47;1.20;;;20.20;74.00;;;;;;6299928;28;20245;-63
2021/05/16 15:51:47;;;;;;;2.03;0.80;;;20.20;75.60;;;;;;6274598;28;20242;-63
2021/05/16 15:54:50;;;;;;;1.97;0.70;;;20.10;77.60;;;;;;6274947;28;20701;-63
2021/05/16 15:57:53;;;;;;;0.73;0.73;;;20.00;77.50;;;;;;6286507;28;20219;-63
2021/05/16 16:00:59;;;;;;;0.77;0.77;;;20.00;78.80;;;;;;6298964;28;20689;-63
2021/05/16 16:04:02;;;;;;;1.10;1.00;;;20.00;79.70;;;;;;6299055;28;20341;-62